Horquilla, Argentina
Current Conditions -  °F | °C
As of 1:00 PM on Thursday 18 Dec 2014 (Local Time) from SARE Reporting Station
Broken Clouds Broken Clouds  
Wind Chill: 86°   Ceiling: 2000
Heat Index: 93°   Visibility: 6mi
Dew Point: 73°   Wind: 7mph
Humidity: 66%   Direction: 140°SE
Pressure: 29.85"   Gusts: NA
Location:  27.53°S, 60.18°W
Report Text: SARE 181600Z 14006KT 9999 BKN020 30/23 Q1011
Loading
Personal Weather Stations






























Interactive Weather Map New forecast layout! Learn more

10-Day Weather Forecast

Advertisements
Track Severe Weather on mobile